Time;durP1;ratioP1;P1;durP2;ratioP2;P2;SDS_P1;SDS_P2;PMS_P1;PMS_P2;Temp;Humidity;BMP_temperature;BMP_pressure;BME280_temperature;BME280_humidity;BME280_pressure;Samples;Min_cycle;Max_cycle;Signal;HPM_P1;HPM_P2
2023/12/17 00:00:24;;;;;;;21.00;12.80;;;;;;;5.87;97.82;101649.39;112670;241;154739;-55
2023/12/17 00:03:18;;;;;;;17.80;11.50;;;;;;;5.87;97.83;101655.63;112612;242;307710;-53
2023/12/17 00:05:52;;;;;;;18.40;12.00;;;;;;;5.88;97.85;101641.95;112700;242;154877;-56
2023/12/17 00:08:26;;;;;;;17.30;11.40;;;;;;;5.87;98.00;101648.68;112824;242;40321;-56
2023/12/17 00:11:00;;;;;;;16.50;11.70;;;;;;;5.85;97.92;101645.98;112862;241;39404;-55
2023/12/17 00:13:34;;;;;;;13.40;11.10;;;;;;;5.86;97.89;101646.56;112860;242;39451;-55
2023/12/17 00:16:10;;;;;;;16.30;11.20;;;;;;;5.91;97.96;101642.56;112844;241;40673;-55
2023/12/17 00:18:44;;;;;;;14.60;11.30;;;;;;;5.92;97.92;101640.00;112707;241;155714;-55
2023/12/17 00:21:18;;;;;;;14.00;11.50;;;;;;;5.94;97.88;101635.90;112839;242;40564;-56
2023/12/17 00:23:51;;;;;;;14.40;10.60;;;;;;;5.96;97.92;101625.89;112733;240;154808;-55
2023/12/17 00:26:25;;;;;;;15.50;10.20;;;;;;;5.96;97.99;101617.67;112854;241;40973;-55
2023/12/17 00:28:59;;;;;;;14.20;11.10;;;;;;;5.97;98.05;101626.34;112713;240;155050;-57
2023/12/17 00:31:33;;;;;;;14.40;10.50;;;;;;;5.99;97.96;101633.52;112828;242;39855;-57
2023/12/17 00:34:07;;;;;;;15.80;11.20;;;;;;;6.01;97.99;101636.74;112900;242;39948;-55
2023/12/17 00:36:41;;;;;;;16.10;10.80;;;;;;;6.01;97.96;101640.35;112754;241;154743;-54
2023/12/17 00:39:15;;;;;;;16.40;11.40;;;;;;;6.02;97.82;101638.61;112837;241;40334;-54
2023/12/17 00:41:48;;;;;;;14.60;10.40;;;;;;;6.04;97.83;101625.55;112741;241;154750;-56
2023/12/17 00:44:22;;;;;;;16.20;11.10;;;;;;;6.08;97.87;101622.16;112815;242;40218;-57
2023/12/17 00:46:56;;;;;;;16.10;11.70;;;;;;;6.10;97.78;101624.16;112716;241;154945;-56
2023/12/17 00:49:30;;;;;;;14.00;10.30;;;;;;;6.12;97.68;101630.21;112823;242;40017;-57
2023/12/17 00:52:04;;;;;;;16.40;10.70;;;;;;;6.12;97.60;101633.86;112848;242;39374;-55
2023/12/17 00:54:38;;;;;;;13.90;9.90;;;;;;;6.14;97.71;101634.55;112728;241;154790;-54
2023/12/17 00:57:12;;;;;;;18.20;11.20;;;;;;;6.15;97.54;101633.89;112842;242;39829;-57
2023/12/17 00:59:45;;;;;;;17.20;11.10;;;;;;;6.15;97.67;101634.98;112691;241;155766;-56
2023/12/17 01:02:19;;;;;;;15.20;10.40;;;;;;;6.17;97.68;101632.52;112890;242;39534;-53
2023/12/17 01:04:53;;;;;;;18.50;10.80;;;;;;;6.20;97.62;101636.91;112704;241;155858;-53
2023/12/17 01:07:27;;;;;;;13.10;9.60;;;;;;;6.22;97.52;101646.55;112861;242;39771;-56
2023/12/17 01:10:01;;;;;;;14.60;11.00;;;;;;;6.20;97.55;101644.56;112810;242;39391;-57
2023/12/17 01:12:35;;;;;;;16.30;11.40;;;;;;;6.21;97.53;101643.27;112755;241;154959;-58
2023/12/17 01:15:12;;;;;;;16.30;10.90;;;;;;;6.23;97.52;101634.89;112867;241;40816;-58
2023/12/17 01:17:46;;;;;;;17.80;11.70;;;;;;;6.23;97.32;101618.23;112726;241;154966;-56
2023/12/17 01:20:19;;;;;;;18.80;11.70;;;;;;;6.23;97.53;101610.48;112840;242;40895;-56
2023/12/17 01:22:53;;;;;;;16.50;11.70;;;;;;;6.26;97.37;101605.73;112741;241;155126;-55
2023/12/17 01:25:27;;;;;;;15.40;10.90;;;;;;;6.28;97.24;101605.22;112849;242;39590;-54
2023/12/17 01:28:00;;;;;;;;;;;;;;;6.28;97.30;101604.16;112846;241;39198;-58
2023/12/17 01:30:34;;;;;;;17.30;12.20;;;;;;;6.27;97.29;101594.55;112748;239;141513;-54
2023/12/17 01:33:08;;;;;;;17.80;11.40;;;;;;;6.31;97.26;101595.31;112837;241;39689;-54
2023/12/17 01:35:42;;;;;;;15.40;11.80;;;;;;;6.33;97.13;101598.20;112725;241;154620;-54
2023/12/17 01:38:16;;;;;;;16.50;11.20;;;;;;;6.33;97.26;101597.61;112847;242;40171;-54
2023/12/17 01:40:50;;;;;;;17.80;11.30;;;;;;;6.32;97.15;101599.74;112711;242;155866;-57
2023/12/17 01:43:24;;;;;;;17.10;11.50;;;;;;;6.33;97.07;101590.13;112834;242;38888;-57
2023/12/17 01:45:58;;;;;;;21.70;12.50;;;;;;;6.34;97.16;101581.80;112852;242;39911;-56
2023/12/17 01:48:32;;;;;;;17.30;11.80;;;;;;;6.34;97.17;101575.55;112712;242;154773;-57
2023/12/17 01:51:07;;;;;;;13.90;11.60;;;;;;;6.34;97.10;101580.56;112825;242;39725;-55
2023/12/17 01:53:41;;;;;;;19.70;12.10;;;;;;;6.32;97.32;101583.04;112741;241;154865;-55
2023/12/17 01:56:16;;;;;;;19.80;12.10;;;;;;;6.33;97.33;101581.73;112820;242;40702;-56
2023/12/17 01:58:50;;;;;;;19.90;11.80;;;;;;;6.38;97.12;101588.98;112725;241;155874;-56
2023/12/17 02:01:24;;;;;;;21.20;12.10;;;;;;;6.39;97.14;101579.23;112836;242;40653;-54
2023/12/17 02:04:00;;;;;;;14.50;10.90;;;;;;;6.37;97.14;101558.82;112852;242;39439;-54
2023/12/17 02:06:34;;;;;;;17.90;12.10;;;;;;;6.37;97.24;101562.20;112699;241;155655;-55
2023/12/17 02:09:08;;;;;;;15.70;11.70;;;;;;;6.36;97.20;101563.91;112841;242;41089;-55
2023/12/17 02:11:42;;;;;;;20.10;12.60;;;;;;;6.38;97.22;101559.27;112734;241;154686;-57
2023/12/17 02:14:16;;;;;;;17.60;11.60;;;;;;;6.37;97.38;101560.40;112834;242;39702;-57
2023/12/17 02:16:49;;;;;;;17.60;11.00;;;;;;;6.37;97.37;101558.52;112720;241;155003;-54
2023/12/17 02:19:23;;;;;;;19.20;12.30;;;;;;;6.39;97.23;101559.77;112846;241;39377;-54
2023/12/17 02:21:57;;;;;;;19.40;12.00;;;;;;;6.44;97.28;101568.04;112843;242;39381;-58
2023/12/17 02:24:33;;;;;;;21.40;11.70;;;;;;;6.46;97.37;101562.84;112717;241;154729;-58
2023/12/17 02:27:07;;;;;;;17.50;12.00;;;;;;;6.46;97.37;101560.30;112827;242;40158;-57
2023/12/17 02:29:39;;;;;;;;;;;;;;;6.47;97.38;101555.73;112720;241;155852;-57
2023/12/17 02:32:14;;;;;;;17.10;11.60;;;;;;;6.48;97.55;101553.84;112817;242;40336;-57
2023/12/17 02:34:48;;;;;;;19.50;11.90;;;;;;;6.48;97.49;101549.06;112703;241;155131;-57
2023/12/17 02:37:23;;;;;;;15.90;10.40;;;;;;;6.50;97.68;101538.00;112850;242;39927;-58
2023/12/17 02:39:55;;;;;;;;;;;;;;;6.51;97.52;101544.70;112835;242;39658;-58
2023/12/17 02:42:28;;;;;;;19.00;11.50;;;;;;;6.47;97.76;101551.69;112753;233;164813;-58
2023/12/17 02:45:02;;;;;;;16.00;10.80;;;;;;;6.49;97.65;101552.58;112836;242;39303;-58
2023/12/17 02:47:36;;;;;;;18.50;11.10;;;;;;;6.54;97.67;101557.17;112841;242;39405;-57
2023/12/17 02:50:12;;;;;;;17.30;11.00;;;;;;;6.54;97.81;101559.63;112843;241;41577;-57
2023/12/17 02:52:46;;;;;;;18.70;11.40;;;;;;;6.59;97.84;101570.54;112861;241;39888;-55
2023/12/17 02:55:20;;;;;;;18.40;11.90;;;;;;;6.58;97.83;101566.88;112808;242;39313;-55
2023/12/17 02:57:54;;;;;;;17.60;11.20;;;;;;;6.58;97.75;101564.30;112873;242;39758;-58
2023/12/17 03:00:28;;;;;;;19.40;11.40;;;;;;;6.60;97.87;101568.41;112736;241;156094;-58
2023/12/17 03:03:01;;;;;;;;;;;;;;;6.63;97.81;101560.45;112842;242;39168;-54
2023/12/17 03:05:35;;;;;;;16.20;11.10;;;;;;;6.64;97.90;101555.40;112857;242;39348;-58
2023/12/17 03:08:09;;;;;;;16.10;11.10;;;;;;;6.67;97.82;101570.85;112851;242;40915;-57
2023/12/17 03:10:43;;;;;;;16.90;11.30;;;;;;;6.68;97.89;101578.05;112846;241;39343;-54
2023/12/17 03:13:18;;;;;;;18.20;11.90;;;;;;;6.68;97.99;101582.77;112679;241;154614;-54
2023/12/17 03:15:52;;;;;;;17.60;11.60;;;;;;;6.70;97.78;101574.50;112834;242;39813;-54
2023/12/17 03:18:26;;;;;;;17.40;11.20;;;;;;;6.70;97.79;101579.01;112698;241;154827;-54
2023/12/17 03:21:00;;;;;;;16.50;11.60;;;;;;;6.71;97.95;101573.03;112851;242;39503;-56
2023/12/17 03:23:33;;;;;;;15.90;11.60;;;;;;;6.73;97.88;101572.09;112765;241;155187;-57
2023/12/17 03:26:08;;;;;;;18.00;11.70;;;;;;;6.75;97.97;101573.67;112870;242;39407;-53
2023/12/17 03:28:40;;;;;;;;;;;;;;;6.77;98.01;101596.63;112853;242;40279;-53
2023/12/17 03:31:16;;;;;;;18.10;12.40;;;;;;;6.78;98.26;101585.13;112721;241;140662;-55
2023/12/17 03:33:50;;;;;;;20.30;12.90;;;;;;;6.78;98.12;101576.52;112813;242;39932;-54
2023/12/17 03:36:24;;;;;;;19.80;11.70;;;;;;;6.78;98.11;101574.54;112707;241;154897;-57
2023/12/17 03:38:58;;;;;;;19.30;11.80;;;;;;;6.78;98.28;101578.48;112850;242;39736;-57
2023/12/17 03:41:32;;;;;;;20.90;12.20;;;;;;;6.76;98.21;101570.20;112744;242;155013;-56
2023/12/17 03:44:06;;;;;;;15.70;11.40;;;;;;;6.75;98.38;101577.09;112816;242;39498;-56
2023/12/17 03:46:40;;;;;;;16.20;11.40;;;;;;;6.75;98.43;101575.70;112844;242;40674;-54
2023/12/17 03:49:14;;;;;;;16.40;11.50;;;;;;;6.77;98.41;101568.00;112700;241;154883;-54
2023/12/17 03:51:48;;;;;;;22.00;12.30;;;;;;;6.79;98.43;101569.59;112882;242;39790;-56
2023/12/17 03:54:22;;;;;;;16.40;11.80;;;;;;;6.81;98.44;101573.33;112706;241;154745;-57
2023/12/17 03:56:56;;;;;;;20.90;12.70;;;;;;;6.82;98.51;101571.44;112826;242;40236;-57
2023/12/17 03:59:29;;;;;;;17.40;11.90;;;;;;;6.83;98.46;101568.15;112739;241;155059;-57
2023/12/17 04:02:03;;;;;;;20.60;12.90;;;;;;;6.82;98.60;101563.73;112850;242;40204;-57
2023/12/17 04:04:37;;;;;;;21.10;11.50;;;;;;;6.83;98.43;101558.48;112853;242;40907;-57
2023/12/17 04:07:11;;;;;;;16.60;12.10;;;;;;;6.86;98.63;101562.68;112675;241;155216;-57
2023/12/17 04:09:45;;;;;;;20.50;11.10;;;;;;;6.85;98.67;101561.13;112910;242;39589;-57
2023/12/17 04:12:19;;;;;;;15.10;11.30;;;;;;;6.86;98.76;101568.41;112718;241;154971;-54
2023/12/17 04:15:15;;;;;;;17.30;11.00;;;;;;;6.85;98.80;101579.61;112879;242;39605;-54
2023/12/17 04:17:49;;;;;;;18.30;11.90;;;;;;;6.83;99.10;101578.36;112670;242;155493;-57
2023/12/17 04:20:23;;;;;;;22.20;12.90;;;;;;;6.87;98.95;101583.91;112843;242;39676;-57
2023/12/17 04:22:57;;;;;;;20.40;11.50;;;;;;;6.92;98.84;101587.19;112871;242;40323;-53
2023/12/17 04:25:31;;;;;;;18.30;11.20;;;;;;;6.90;99.12;101575.73;112821;242;39467;-53
2023/12/17 04:28:05;;;;;;;16.30;11.70;;;;;;;6.91;99.00;101568.49;112833;241;39314;-54
2023/12/17 04:30:39;;;;;;;15.30;9.50;;;;;;;6.94;98.94;101575.23;112741;240;154802;-55
2023/12/17 04:33:12;;;;;;;18.40;11.50;;;;;;;6.95;99.03;101582.62;112873;241;39579;-55
2023/12/17 04:35:46;;;;;;;18.80;11.00;;;;;;;6.92;99.26;101579.86;112721;241;154856;-56
2023/12/17 04:38:21;;;;;;;17.00;11.80;;;;;;;6.93;99.43;101574.27;112862;242;40510;-56
2023/12/17 04:40:55;;;;;;;20.50;12.30;;;;;;;6.96;99.18;101575.90;112897;242;39184;-56
2023/12/17 04:43:28;;;;;;;;;;;;;;;6.97;99.27;101584.06;112853;242;39376;-56
2023/12/17 04:46:02;;;;;;;18.60;11.10;;;;;;;6.96;99.30;101583.77;112828;242;41272;-55
2023/12/17 04:48:36;;;;;;;17.90;11.40;;;;;;;6.95;99.40;101573.19;112715;240;154945;-55
2023/12/17 04:51:10;;;;;;;19.00;11.30;;;;;;;6.96;99.48;101574.80;112847;242;40564;-53
2023/12/17 04:53:44;;;;;;;15.80;11.20;;;;;;;6.96;99.49;101579.45;112737;242;155976;-53
2023/12/17 04:56:18;;;;;;;17.40;11.50;;;;;;;6.99;99.52;101584.60;112878;242;40831;-53
2023/12/17 04:58:52;;;;;;;17.50;11.40;;;;;;;7.01;99.58;101586.56;112917;242;39544;-53
2023/12/17 05:01:26;;;;;;;19.30;11.40;;;;;;;7.02;99.59;101578.23;112847;242;39567;-56
2023/12/17 05:04:00;;;;;;;19.40;11.10;;;;;;;7.02;99.63;101567.70;112831;242;38938;-56
2023/12/17 05:06:34;;;;;;;17.60;10.80;;;;;;;7.04;99.66;101565.54;112635;241;155813;-53
2023/12/17 05:09:08;;;;;;;16.30;11.00;;;;;;;7.06;99.62;101566.40;112827;242;39988;-53
2023/12/17 05:11:42;;;;;;;16.10;11.10;;;;;;;7.03;99.88;101570.58;112773;242;155011;-53
2023/12/17 05:14:16;;;;;;;15.90;11.20;;;;;;;7.05;99.76;101579.04;112719;242;39333;-54
2023/12/17 05:16:50;;;;;;;17.00;10.80;;;;;;;7.07;99.77;101578.12;112906;242;39979;-56
2023/12/17 05:19:24;;;;;;;15.70;11.30;;;;;;;7.06;99.98;101578.91;112717;241;154717;-56
2023/12/17 05:21:58;;;;;;;18.20;11.80;;;;;;;7.06;99.92;101589.34;112873;241;39466;-56
2023/12/17 05:24:32;;;;;;;15.20;10.70;;;;;;;7.04;100.00;101586.14;112886;242;40994;-56
2023/12/17 05:27:06;;;;;;;17.50;11.80;;;;;;;7.07;99.98;101583.50;112876;241;39653;-53
2023/12/17 05:29:40;;;;;;;15.90;11.10;;;;;;;7.07;99.99;101586.40;112692;241;155881;-53
2023/12/17 05:32:14;;;;;;;17.40;11.20;;;;;;;7.08;100.00;101592.73;112853;242;39608;-53
2023/12/17 05:34:49;;;;;;;15.70;11.80;;;;;;;7.11;99.95;101599.03;112823;242;40237;-53
2023/12/17 05:37:21;;;;;;;;;;;;;;;7.13;99.98;101602.31;112842;242;39361;-53
2023/12/17 05:39:55;;;;;;;16.60;11.60;;;;;;;7.15;99.98;101604.80;112797;242;38857;-53
2023/12/17 05:42:29;;;;;;;16.50;10.70;;;;;;;7.16;100.00;101606.91;112696;241;155633;-57
2023/12/17 05:45:02;;;;;;;15.70;10.80;;;;;;;7.18;100.00;101597.02;112839;242;39966;-57
2023/12/17 05:47:36;;;;;;;16.80;10.50;;;;;;;7.18;100.00;101595.25;112736;241;155056;-57
2023/12/17 05:50:12;;;;;;;16.80;11.20;;;;;;;7.19;100.00;101600.65;112877;243;39296;-57
2023/12/17 05:52:46;;;;;;;18.10;11.00;;;;;;;7.18;100.00;101610.28;112865;243;39950;-57
2023/12/17 05:55:20;;;;;;;16.20;11.30;;;;;;;7.18;100.00;101616.53;112695;242;156297;-57
2023/12/17 05:57:54;;;;;;;19.10;11.40;;;;;;;7.21;100.00;101614.47;112823;242;40351;-53
2023/12/17 06:00:29;;;;;;;15.00;11.20;;;;;;;7.25;100.00;101617.56;112840;242;40334;-53
2023/12/17 06:03:03;;;;;;;17.80;11.40;;;;;;;7.24;100.00;101616.23;112852;242;40524;-54
2023/12/17 06:05:37;;;;;;;18.00;11.80;;;;;;;7.27;100.00;101612.53;112702;241;155852;-57
2023/12/17 06:08:11;;;;;;;16.20;10.30;;;;;;;7.27;100.00;101612.14;112825;242;39327;-57
2023/12/17 06:10:44;;;;;;;19.20;12.50;;;;;;;7.28;100.00;101611.17;112791;242;40046;-54
2023/12/17 06:13:18;;;;;;;16.90;10.80;;;;;;;7.31;100.00;101606.91;112710;241;155195;-54
2023/12/17 06:15:52;;;;;;;14.80;11.20;;;;;;;7.32;100.00;101605.29;112851;242;39448;-54
2023/12/17 06:18:26;;;;;;;18.40;11.70;;;;;;;7.35;100.00;101613.41;112844;242;41130;-53
2023/12/17 06:21:01;;;;;;;13.90;10.60;;;;;;;7.36;100.00;101620.78;112864;242;39532;-57
2023/12/17 06:23:36;;;;;;;14.00;10.70;;;;;;;7.35;100.00;101623.55;112672;241;157397;-57
2023/12/17 06:26:10;;;;;;;19.10;10.20;;;;;;;7.34;100.00;101621.77;112828;242;39846;-56
2023/12/17 06:28:44;;;;;;;15.60;11.10;;;;;;;7.35;100.00;101627.38;112755;243;41805;-56
2023/12/17 06:31:18;;;;;;;20.80;11.80;;;;;;;7.38;100.00;101625.63;112578;243;155302;-57
2023/12/17 06:33:53;;;;;;;18.90;11.90;;;;;;;7.39;100.00;101621.38;112776;243;40165;-57
2023/12/17 06:36:28;;;;;;;18.80;12.60;;;;;;;7.38;100.00;101620.42;112703;242;156061;-58
2023/12/17 06:39:00;;;;;;;;;;;;;;;7.42;100.00;101621.87;112845;243;40280;-56
2023/12/17 06:41:34;;;;;;;17.60;11.80;;;;;;;7.43;100.00;101621.59;112743;242;141745;-54
2023/12/17 06:44:08;;;;;;;17.20;11.70;;;;;;;7.44;100.00;101620.94;112657;243;41265;-54
2023/12/17 06:46:42;;;;;;;16.20;10.20;;;;;;;7.46;100.00;101624.00;112788;243;40210;-57
2023/12/17 06:49:16;;;;;;;13.90;11.10;;;;;;;7.46;100.00;101632.98;112698;241;155236;-57
2023/12/17 06:51:50;;;;;;;16.50;11.80;;;;;;;7.49;100.00;101631.64;112824;243;40525;-58
2023/12/17 06:54:24;;;;;;;17.60;10.70;;;;;;;7.50;100.00;101631.87;112636;243;156112;-57
2023/12/17 06:56:58;;;;;;;17.30;10.70;;;;;;;7.52;100.00;101632.63;112683;243;39998;-54
2023/12/17 06:59:31;;;;;;;14.20;10.70;;;;;;;7.53;100.00;101634.08;112469;241;156307;-53
2023/12/17 07:02:06;;;;;;;13.40;10.40;;;;;;;7.53;100.00;101633.05;112813;243;39478;-53
2023/12/17 07:04:39;;;;;;;13.80;10.20;;;;;;;7.54;100.00;101635.70;112874;243;40776;-53
2023/12/17 07:07:13;;;;;;;15.40;10.50;;;;;;;7.55;100.00;101637.33;112518;242;155200;-59
2023/12/17 07:09:47;;;;;;;15.90;10.60;;;;;;;7.59;100.00;101643.27;112766;243;39913;-57
2023/12/17 07:12:21;;;;;;;15.30;10.90;;;;;;;7.58;100.00;101645.98;112635;243;155094;-54
2023/12/17 07:14:55;;;;;;;14.50;10.30;;;;;;;7.56;100.00;101661.06;112835;243;41061;-53
2023/12/17 07:17:30;;;;;;;16.30;10.80;;;;;;;7.60;100.00;101673.85;112692;242;156208;-54
2023/12/17 07:20:02;;;;;;;;;;;;;;;7.62;100.00;101682.92;112649;243;41151;-54
2023/12/17 07:22:37;;;;;;;17.60;11.40;;;;;;;7.64;100.00;101691.20;112788;243;39695;-56
2023/12/17 07:25:12;;;;;;;15.60;10.80;;;;;;;7.64;100.00;101695.65;112502;241;154462;-56
2023/12/17 07:27:45;;;;;;;15.00;9.90;;;;;;;7.66;100.00;101687.27;112795;242;39586;-56
2023/12/17 07:30:20;;;;;;;15.50;10.50;;;;;;;7.69;100.00;101689.81;112689;241;155264;-57
2023/12/17 07:32:54;;;;;;;16.80;11.40;;;;;;;7.71;100.00;101684.61;112829;242;39303;-54
2023/12/17 07:35:28;;;;;;;15.40;10.90;;;;;;;7.77;100.00;101691.08;112702;241;154873;-53
2023/12/17 07:38:02;;;;;;;15.10;10.30;;;;;;;7.71;100.00;101694.17;112783;242;40166;-55
2023/12/17 07:40:36;;;;;;;14.80;11.00;;;;;;;7.73;100.00;101698.11;112856;242;39202;-57
2023/12/17 07:43:10;;;;;;;15.20;10.60;;;;;;;7.76;100.00;101696.08;112733;241;155235;-57
2023/12/17 07:45:42;;;;;;;;;;;;;;;7.77;100.00;101697.08;112862;242;40309;-54
2023/12/17 07:48:16;;;;;;;14.90;11.10;;;;;;;7.71;100.00;101700.44;112736;242;141265;-54
2023/12/17 07:50:51;;;;;;;17.30;11.30;;;;;;;7.73;100.00;101697.17;112859;242;39750;-57
2023/12/17 07:53:23;;;;;;;;;;;;;;;7.77;100.00;101692.40;112824;242;41043;-57
2023/12/17 07:55:59;;;;;;;14.80;10.60;;;;;;;7.79;100.00;101698.63;112747;242;40663;-54
2023/12/17 07:58:32;;;;;;;15.10;10.70;;;;;;;7.79;100.00;101703.10;112829;242;39449;-54
2023/12/17 08:01:09;;;;;;;16.10;11.20;;;;;;;7.79;100.00;101708.09;112713;241;155241;-56
2023/12/17 08:03:43;;;;;;;14.70;10.40;;;;;;;7.79;100.00;101710.43;112663;242;245454;-57
2023/12/17 08:06:17;;;;;;;13.60;11.20;;;;;;;7.81;100.00;101713.11;112693;242;155606;-55
2023/12/17 08:08:51;;;;;;;13.00;10.70;;;;;;;7.82;100.00;101710.70;112841;242;40656;-55
2023/12/17 08:11:25;;;;;;;14.90;10.60;;;;;;;7.85;100.00;101707.02;112857;242;39621;-54
2023/12/17 08:13:59;;;;;;;16.40;12.40;;;;;;;7.90;100.00;101710.38;112675;243;40335;-54
2023/12/17 08:16:33;;;;;;;14.50;11.30;;;;;;;7.93;100.00;101709.14;112853;243;40339;-56
2023/12/17 08:19:07;;;;;;;17.70;11.20;;;;;;;7.94;100.00;101717.66;112745;241;156162;-56
2023/12/17 08:21:41;;;;;;;14.00;11.00;;;;;;;7.92;100.00;101720.80;112795;242;39523;-57
2023/12/17 08:24:15;;;;;;;16.50;11.10;;;;;;;7.93;100.00;101722.80;112701;242;155141;-58
2023/12/17 08:26:50;;;;;;;17.00;11.20;;;;;;;7.94;100.00;101728.48;112878;242;39346;-54
2023/12/17 08:29:24;;;;;;;14.30;10.70;;;;;;;7.96;100.00;101732.72;112835;242;39235;-54
2023/12/17 08:31:56;;;;;;;;;;;;;;;8.00;100.00;101737.17;112822;242;39402;-54
2023/12/17 08:34:31;;;;;;;16.10;11.30;;;;;;;7.98;100.00;101740.80;112911;242;39646;-54
2023/12/17 08:37:06;;;;;;;14.30;11.30;;;;;;;8.00;100.00;101739.53;112573;242;159089;-58
2023/12/17 08:39:39;;;;;;;13.70;11.40;;;;;;;8.02;99.96;101735.91;112810;243;39330;-57
2023/12/17 08:42:13;;;;;;;14.70;11.00;;;;;;;8.05;99.99;101734.42;112740;241;155488;-57
2023/12/17 08:44:49;;;;;;;12.90;10.50;;;;;;;8.08;99.97;101730.73;112857;242;39609;-58
2023/12/17 08:47:24;;;;;;;15.50;10.80;;;;;;;8.05;100.00;101734.56;112850;242;40439;-57
2023/12/17 08:49:59;;;;;;;14.80;11.00;;;;;;;8.09;99.94;101733.64;112758;242;42109;-57
2023/12/17 08:52:35;;;;;;;15.40;10.90;;;;;;;8.13;99.98;101732.79;112881;242;39934;-57
2023/12/17 08:55:11;;;;;;;14.00;10.10;;;;;;;8.14;99.80;101730.32;112709;241;155761;-57
2023/12/17 08:57:45;;;;;;;15.00;11.30;;;;;;;8.16;99.78;101724.91;112878;242;41316;-56
2023/12/17 09:00:20;;;;;;;15.10;12.40;;;;;;;8.20;99.63;101728.69;112820;242;39513;-56
2023/12/17 09:02:54;;;;;;;15.30;10.90;;;;;;;8.20;99.61;101725.65;112835;242;40842;-56
2023/12/17 09:05:31;;;;;;;13.80;11.10;;;;;;;8.22;99.53;101724.52;112838;242;40066;-56
2023/12/17 09:08:05;;;;;;;15.40;11.90;;;;;;;8.24;99.43;101720.98;112725;241;155056;-57
2023/12/17 09:10:40;;;;;;;14.60;10.70;;;;;;;8.28;99.40;101716.52;112877;242;41016;-56
2023/12/17 09:13:14;;;;;;;13.80;10.40;;;;;;;8.30;99.44;101710.95;112688;241;155115;-56
2023/12/17 09:15:48;;;;;;;12.70;10.10;;;;;;;8.31;99.21;101709.96;112844;242;39649;-57
2023/12/17 09:18:22;;;;;;;13.30;10.50;;;;;;;8.31;99.30;101709.59;112731;241;156306;-57
2023/12/17 09:20:56;;;;;;;14.40;10.80;;;;;;;8.34;99.16;101714.01;112804;242;39835;-54
2023/12/17 09:23:29;;;;;;;13.60;10.60;;;;;;;8.36;99.15;101712.38;112864;242;39380;-54
2023/12/17 09:26:03;;;;;;;16.20;11.70;;;;;;;8.36;99.09;101718.09;112835;242;40324;-57
2023/12/17 09:28:38;;;;;;;14.30;11.20;;;;;;;8.39;99.17;101718.86;112832;242;38905;-57
2023/12/17 09:31:11;;;;;;;14.00;10.50;;;;;;;8.43;98.95;101723.55;112712;241;154838;-55
2023/12/17 09:33:46;;;;;;;12.40;9.50;;;;;;;8.45;98.94;101726.41;112853;242;39125;-54
2023/12/17 09:36:22;;;;;;;15.40;10.70;;;;;;;8.45;98.81;101732.85;112738;241;156033;-54
2023/12/17 09:38:57;;;;;;;13.20;10.80;;;;;;;8.46;98.71;101729.87;112844;242;39249;-54
2023/12/17 09:41:31;;;;;;;13.20;9.70;;;;;;;8.47;98.78;101724.73;112853;242;39429;-57
2023/12/17 09:44:07;;;;;;;13.50;9.80;;;;;;;8.49;98.85;101726.39;112851;242;40475;-58
2023/12/17 09:46:40;;;;;;;13.40;9.50;;;;;;;8.52;98.77;101730.21;112881;242;39379;-57
2023/12/17 09:49:15;;;;;;;12.50;9.50;;;;;;;8.51;98.83;101729.59;112739;241;154702;-57
2023/12/17 09:51:55;;;;;;;12.50;10.20;;;;;;;8.55;98.72;101721.70;112668;242;39957;-54
2023/12/17 09:54:29;;;;;;;14.20;10.40;;;;;;;8.58;98.63;101723.54;112716;241;155213;-54
2023/12/17 09:57:06;;;;;;;14.60;10.50;;;;;;;8.62;98.62;101719.36;112887;242;39946;-54
2023/12/17 09:59:42;;;;;;;12.50;10.10;;;;;;;8.65;98.50;101718.20;112840;242;39881;-54
2023/12/17 10:02:18;;;;;;;12.00;9.20;;;;;;;8.69;98.49;101714.94;112690;241;154773;-54
2023/12/17 10:04:53;;;;;;;14.80;10.40;;;;;;;8.71;98.43;101711.66;112862;242;40617;-54
2023/12/17 10:07:27;;;;;;;13.40;10.40;;;;;;;8.73;98.41;101716.40;112717;242;155147;-55
2023/12/17 10:10:01;;;;;;;16.30;11.30;;;;;;;8.73;98.40;101707.34;112847;242;40170;-55
2023/12/17 10:12:35;;;;;;;15.30;10.70;;;;;;;8.67;98.39;101708.30;112720;241;155285;-57
2023/12/17 10:15:12;;;;;;;13.50;10.40;;;;;;;8.70;98.44;101699.75;112846;242;39470;-57
2023/12/17 10:17:47;;;;;;;14.70;10.60;;;;;;;8.72;98.29;101699.55;112850;242;38957;-55
2023/12/17 10:20:24;;;;;;;15.20;11.10;;;;;;;8.75;98.14;101705.86;112844;242;39223;-55
2023/12/17 10:23:03;;;;;;;13.30;10.50;;;;;;;8.75;98.22;101704.64;112852;242;39481;-57
2023/12/17 10:25:37;;;;;;;14.70;10.60;;;;;;;8.74;98.17;101707.45;112718;241;155075;-55
2023/12/17 10:28:13;;;;;;;14.00;11.10;;;;;;;8.73;98.23;101707.86;112859;242;39309;-55
2023/12/17 10:30:48;;;;;;;17.80;12.40;;;;;;;8.71;98.23;101704.84;112748;241;155480;-55
2023/12/17 10:33:30;;;;;;;17.30;12.00;;;;;;;8.71;98.22;101700.37;112876;242;39795;-55
2023/12/17 10:36:05;;;;;;;14.30;11.50;;;;;;;8.71;98.29;101696.74;112721;241;155065;-57
2023/12/17 10:38:39;;;;;;;14.70;10.70;;;;;;;8.69;98.46;101698.27;112822;242;39870;-57
2023/12/17 10:41:14;;;;;;;15.50;10.90;;;;;;;8.66;98.34;101701.42;112853;242;39751;-54
2023/12/17 10:43:50;;;;;;;15.90;11.80;;;;;;;8.67;98.36;101707.89;112718;241;154758;-54
2023/12/17 10:46:26;;;;;;;14.20;11.60;;;;;;;8.67;98.42;101709.23;112866;242;40141;-54
2023/12/17 10:49:00;;;;;;;13.50;11.60;;;;;;;8.65;98.25;101710.24;112846;242;39449;-54
2023/12/17 10:51:36;;;;;;;16.10;11.40;;;;;;;8.65;98.33;101704.92;112845;242;40497;-57
2023/12/17 10:54:11;;;;;;;16.00;12.40;;;;;;;8.65;98.33;101700.81;112738;241;155105;-57
2023/12/17 10:56:52;;;;;;;17.00;12.90;;;;;;;8.65;98.30;101699.91;112827;242;39290;-54
2023/12/17 10:59:30;;;;;;;16.80;13.10;;;;;;;8.65;98.20;101698.42;112865;242;40146;-54
2023/12/17 11:02:06;;;;;;;19.40;14.40;;;;;;;8.66;98.25;101697.98;112875;242;40574;-54
2023/12/17 11:04:45;;;;;;;19.20;14.40;;;;;;;8.64;98.35;101699.25;112827;242;39997;-54
2023/12/17 11:07:23;;;;;;;20.50;14.20;;;;;;;8.65;98.39;101696.11;112709;241;155211;-58
2023/12/17 11:09:57;;;;;;;17.90;13.70;;;;;;;8.65;98.40;101692.33;112848;242;39391;-55
2023/12/17 11:12:30;;;;;;;;;;;;;;;8.64;98.30;101693.29;112695;241;155402;-57
2023/12/17 11:15:05;;;;;;;21.30;14.30;;;;;;;8.60;98.67;101692.79;112836;242;40422;-56
2023/12/17 11:17:39;;;;;;;19.70;15.10;;;;;;;8.60;98.44;101691.96;112869;242;40884;-56
2023/12/17 11:20:14;;;;;;;23.90;16.10;;;;;;;8.59;98.57;101698.66;112741;240;155724;-57
2023/12/17 11:22:46;;;;;;;;;;;;;;;8.59;98.43;101698.50;112842;242;39655;-54
2023/12/17 11:25:21;;;;;;;19.90;15.30;;;;;;;8.57;98.43;101694.73;112757;241;140854;-54
2023/12/17 11:27:56;;;;;;;20.20;14.60;;;;;;;8.59;98.45;101692.52;112803;242;41257;-56
2023/12/17 11:30:34;;;;;;;20.40;14.80;;;;;;;8.60;98.34;101699.66;112739;241;156016;-56
2023/12/17 11:33:09;;;;;;;20.30;14.90;;;;;;;8.57;98.46;101702.41;112812;242;41249;-53
2023/12/17 11:35:44;;;;;;;19.40;15.50;;;;;;;8.56;98.45;101705.73;112864;242;40459;-54
2023/12/17 11:38:21;;;;;;;18.10;14.70;;;;;;;8.55;98.60;101714.46;112806;242;39590;-55
2023/12/17 11:40:56;;;;;;;17.70;15.30;;;;;;;8.53;98.66;101706.77;112846;242;39309;-55
2023/12/17 11:43:30;;;;;;;19.80;15.50;;;;;;;8.52;98.68;101705.02;112834;242;40427;-56
2023/12/17 11:46:04;;;;;;;21.30;15.30;;;;;;;8.54;98.60;101705.23;112889;242;39658;-59
2023/12/17 11:48:38;;;;;;;20.20;15.20;;;;;;;8.56;98.68;101711.33;112682;241;155111;-58